createdAt,value
2023-02-01T00:00:13.433Z,52.40
2023-02-01T00:05:16.579Z,51.13
2023-02-01T00:10:19.549Z,45.17
2023-02-01T00:15:24.316Z,37.45
2023-02-01T00:20:27.196Z,30.60
2023-02-01T00:25:30.304Z,26.52
2023-02-01T00:30:33.295Z,29.65
2023-02-01T00:35:37.442Z,28.15
2023-02-01T00:40:40.287Z,25.35
2023-02-01T00:45:43.306Z,30.67
2023-02-01T00:50:46.590Z,23.33
2023-02-01T00:55:51.315Z,25.77
2023-02-01T01:01:09.917Z,24.13
2023-02-01T01:11:34.766Z,23.65
2023-02-01T01:16:38.040Z,24.65
2023-02-01T01:21:41.277Z,25.83
2023-02-01T01:26:44.157Z,22.40
2023-02-01T01:31:47.124Z,29.77
2023-02-01T01:36:50.142Z,24.15
2023-02-01T01:41:53.065Z,27.77
2023-02-01T01:47:00.650Z,26.92
2023-02-01T01:52:05.024Z,30.67
2023-02-01T01:57:18.184Z,33.40
2023-02-01T02:02:21.114Z,24.27
2023-02-01T02:07:32.311Z,23.10
2023-02-01T02:12:35.273Z,27.30
2023-02-01T02:18:10.847Z,26.48
2023-02-01T02:23:38.819Z,25.23
2023-02-01T02:29:19.122Z,34.63
2023-02-01T02:34:27.493Z,41.17
2023-02-01T02:39:51.872Z,45.03
2023-02-01T02:45:24.774Z,48.72
2023-02-01T02:50:53.719Z,46.00
2023-02-01T02:56:17.466Z,42.33
2023-02-01T03:01:39.395Z,37.35
2023-02-01T03:06:42.756Z,34.22
2023-02-01T03:12:07.188Z,37.03
2023-02-01T03:17:20.521Z,46.78
2023-02-01T03:22:28.085Z,35.03
2023-02-01T03:27:44.336Z,40.03
2023-02-01T03:33:02.490Z,41.28
2023-02-01T03:38:24.178Z,44.78
2023-02-01T03:43:32.194Z,48.33
2023-02-01T03:48:37.255Z,48.45
2023-02-01T03:53:42.927Z,48.85
2023-02-01T03:59:00.350Z,43.65
2023-02-01T04:04:10.724Z,40.72
2023-02-01T04:09:15.922Z,38.92
2023-02-01T04:14:19.166Z,34.17
2023-02-01T04:19:21.986Z,34.33
2023-02-01T04:24:25.117Z,40.90
2023-02-01T04:29:28.098Z,33.05
2023-02-01T04:34:31.336Z,38.60
2023-02-01T04:39:34.658Z,29.67
2023-02-01T04:44:40.817Z,30.70
2023-02-01T04:49:43.917Z,30.35
2023-02-01T04:54:46.739Z,34.13
2023-02-01T04:59:49.790Z,28.42
2023-02-01T05:04:52.804Z,29.55
2023-02-01T05:09:55.864Z,27.70
2023-02-01T05:14:58.933Z,27.20
2023-02-01T05:20:01.893Z,29.70
2023-02-01T05:25:08.293Z,23.00
2023-02-01T05:30:12.430Z,27.63
2023-02-01T05:35:15.482Z,31.48
2023-02-01T05:40:18.919Z,23.85
2023-02-01T05:45:22.211Z,24.77
2023-02-01T05:50:25.425Z,28.35
2023-02-01T05:55:34.143Z,26.42
2023-02-01T06:00:37.076Z,25.25
2023-02-01T06:05:40.184Z,21.65
2023-02-01T06:10:43.370Z,23.48
2023-02-01T06:15:47.000Z,30.33
2023-02-01T06:21:01.394Z,24.17
2023-02-01T06:26:08.872Z,25.23
2023-02-01T06:31:12.152Z,27.92
2023-02-01T06:36:16.691Z,21.83
2023-02-01T06:41:21.831Z,23.10
2023-02-01T06:51:29.643Z,22.05
2023-02-01T06:56:32.819Z,27.20
2023-02-01T07:01:36.087Z,25.95
2023-02-01T07:06:40.133Z,24.23
2023-02-01T07:11:44.618Z,25.75
2023-02-01T07:16:47.980Z,22.52
2023-02-01T07:21:53.074Z,21.80
2023-02-01T07:26:56.458Z,21.58
2023-02-01T07:31:59.737Z,22.60
2023-02-01T07:37:02.524Z,22.60
2023-02-01T07:42:05.486Z,21.40
2023-02-01T07:47:08.449Z,24.05
2023-02-01T07:52:12.558Z,24.70
2023-02-01T07:57:21.266Z,23.42
2023-02-01T08:02:24.569Z,22.70
2023-02-01T08:07:27.855Z,23.27
2023-02-01T08:12:31.012Z,25.60
2023-02-01T08:17:33.947Z,25.65
2023-02-01T08:22:36.899Z,29.55
2023-02-01T08:27:40.129Z,28.35
2023-02-01T08:32:43.178Z,27.17
2023-02-01T08:37:46.167Z,29.50
2023-02-01T08:42:52.469Z,34.85
2023-02-01T08:48:00.768Z,29.52
2023-02-01T08:53:03.688Z,35.22
2023-02-01T08:58:06.592Z,33.55
2023-02-01T09:03:12.435Z,27.75
2023-02-01T09:08:16.335Z,31.15
2023-02-01T09:13:19.657Z,28.90
2023-02-01T09:18:22.547Z,27.48
2023-02-01T09:23:26.137Z,35.53
2023-02-01T09:28:29.222Z,33.42
2023-02-01T09:33:32.692Z,31.38
2023-02-01T09:38:38.850Z,32.63
2023-02-01T09:44:00.715Z,27.88
2023-02-01T09:49:11.151Z,29.60
2023-02-01T09:54:24.226Z,36.95
2023-02-01T09:59:37.444Z,29.67
2023-02-01T10:04:40.660Z,31.88
2023-02-01T10:10:27.710Z,31.90
2023-02-01T10:16:08.740Z,30.08
2023-02-01T10:21:24.519Z,34.92
2023-02-01T10:26:34.067Z,31.42
2023-02-01T10:31:39.798Z,34.05
2023-02-01T10:37:01.059Z,30.77
2023-02-01T10:42:04.538Z,35.47
2023-02-01T10:47:09.878Z,29.73
2023-02-01T10:52:22.925Z,34.72
2023-02-01T10:57:30.924Z,34.83
2023-02-01T11:02:37.397Z,38.80
2023-02-01T11:07:47.600Z,37.47
2023-02-01T11:12:55.553Z,37.83
2023-02-01T11:18:16.983Z,35.13
2023-02-01T11:23:22.933Z,36.22
2023-02-01T11:28:33.314Z,34.60
2023-02-01T11:33:39.503Z,36.88
2023-02-01T11:38:53.870Z,40.92
2023-02-01T11:44:02.077Z,35.53
2023-02-01T11:49:26.702Z,37.42
2023-02-01T11:54:55.814Z,33.40
2023-02-01T12:00:05.188Z,35.67
2023-02-01T12:05:37.248Z,33.38
2023-02-01T12:11:09.818Z,38.50
2023-02-01T12:16:32.963Z,33.70
2023-02-01T12:27:08.802Z,36.70
2023-02-01T12:32:41.173Z,38.30
2023-02-01T12:38:04.863Z,34.15
2023-02-01T12:43:22.852Z,40.75
2023-02-01T12:48:33.803Z,33.85
2023-02-01T12:58:55.914Z,37.25
2023-02-01T13:04:18.617Z,38.13
2023-02-01T13:09:21.434Z,36.88
2023-02-01T13:14:33.164Z,33.15
2023-02-01T13:20:24.409Z,36.28
2023-02-01T13:26:02.587Z,41.60
2023-02-01T13:31:20.369Z,36.28
2023-02-01T13:36:37.103Z,36.78
2023-02-01T13:41:53.301Z,40.83
2023-02-01T13:47:00.185Z,39.08
2023-02-01T13:52:03.687Z,38.85
2023-02-01T13:57:28.425Z,48.83
2023-02-01T14:02:41.535Z,38.50
2023-02-01T14:08:06.080Z,39.67
2023-02-01T14:13:31.006Z,41.67
2023-02-01T14:18:38.454Z,41.25
2023-02-01T14:23:44.435Z,41.40
2023-02-01T14:29:12.776Z,37.78
2023-02-01T14:34:48.093Z,41.42
2023-02-01T14:40:01.717Z,37.45
2023-02-01T14:45:25.706Z,36.35
2023-02-01T14:50:49.073Z,33.80
2023-02-01T14:56:14.125Z,33.28
2023-02-01T15:01:35.232Z,38.25
2023-02-01T15:06:42.427Z,34.95
2023-02-01T15:12:01.219Z,31.20
2023-02-01T15:17:19.518Z,36.45
2023-02-01T15:22:22.699Z,33.80
2023-02-01T15:27:27.297Z,32.55
2023-02-01T15:32:37.823Z,26.35
2023-02-01T15:37:40.778Z,22.40
2023-02-01T15:42:55.663Z,29.35
2023-02-01T15:48:00.412Z,27.92
2023-02-01T15:53:03.790Z,27.58
2023-02-01T15:58:08.834Z,27.88
2023-02-01T16:03:45.860Z,28.65
2023-02-01T16:09:01.312Z,24.08
2023-02-01T16:14:04.663Z,36.58
2023-02-01T16:19:07.878Z,25.17
2023-02-01T16:24:10.986Z,31.23
2023-02-01T16:29:13.944Z,23.88
2023-02-01T16:34:21.261Z,28.42
2023-02-01T16:39:25.372Z,28.08
2023-02-01T16:44:28.469Z,28.98
2023-02-01T16:49:31.395Z,25.80
2023-02-01T16:54:34.330Z,24.42
2023-02-01T16:59:37.301Z,27.20
2023-02-01T17:04:40.902Z,26.27
2023-02-01T17:09:44.124Z,29.33
2023-02-01T17:14:47.200Z,28.50
2023-02-01T17:19:54.491Z,29.80
2023-02-01T17:24:57.511Z,30.40
2023-02-01T17:30:01.182Z,29.20
2023-02-01T17:35:07.464Z,27.35
2023-02-01T17:45:38.829Z,30.42
2023-02-01T17:50:42.281Z,26.55
2023-02-01T17:55:46.692Z,26.42
2023-02-01T18:00:50.611Z,27.10
2023-02-01T18:05:56.002Z,31.55
2023-02-01T18:11:01.445Z,27.90
2023-02-01T18:16:04.953Z,28.90
2023-02-01T18:21:08.125Z,32.00
2023-02-01T18:26:16.528Z,34.15
2023-02-01T18:31:30.215Z,30.58
2023-02-01T18:36:33.311Z,26.35
2023-02-01T18:41:36.701Z,29.50
2023-02-01T18:46:39.806Z,26.77
2023-02-01T18:51:43.813Z,32.35
2023-02-01T18:56:46.752Z,26.40
2023-02-01T19:01:49.967Z,30.35
2023-02-01T19:06:52.923Z,25.38
2023-02-01T19:11:55.871Z,28.33
2023-02-01T19:16:58.963Z,27.90
2023-02-01T19:22:01.653Z,30.85
2023-02-01T19:27:04.721Z,30.85
2023-02-01T19:32:07.864Z,28.40
2023-02-01T19:37:11.065Z,26.73
2023-02-01T19:42:14.565Z,29.60
2023-02-01T19:47:17.510Z,28.15
2023-02-01T19:52:20.581Z,25.77
2023-02-01T19:57:23.783Z,34.22
2023-02-01T20:02:28.898Z,30.55
2023-02-01T20:07:31.907Z,28.30
2023-02-01T20:12:35.138Z,34.78
2023-02-01T20:17:38.248Z,29.63
2023-02-01T20:22:41.217Z,30.20
2023-02-01T20:27:44.956Z,23.38
2023-02-01T20:32:52.345Z,27.20
2023-02-01T20:37:57.401Z,27.05
2023-02-01T20:43:00.318Z,22.88
2023-02-01T20:48:03.387Z,24.15
2023-02-01T20:53:06.822Z,26.15
2023-02-01T20:58:09.828Z,25.30
2023-02-01T21:03:13.464Z,22.08
2023-02-01T21:08:17.055Z,27.23
2023-02-01T21:13:20.470Z,27.08
2023-02-01T21:18:24.269Z,24.23
2023-02-01T21:23:27.176Z,25.60
2023-02-01T21:28:30.293Z,23.92
2023-02-01T21:33:33.695Z,23.95
2023-02-01T21:38:36.752Z,23.27
2023-02-01T21:43:40.023Z,28.83
2023-02-01T21:49:05.110Z,26.42
2023-02-01T21:54:11.621Z,23.65
2023-02-01T21:59:14.538Z,24.65
2023-02-01T22:04:18.163Z,32.00
2023-02-01T22:09:26.331Z,25.60
2023-02-01T22:14:29.268Z,27.35
2023-02-01T22:19:32.268Z,21.67
2023-02-01T22:24:36.332Z,26.92
2023-02-01T22:29:39.289Z,26.65
2023-02-01T22:34:42.913Z,25.23
2023-02-01T22:39:46.470Z,25.77
2023-02-01T22:44:49.507Z,27.10
2023-02-01T22:49:52.553Z,26.55
2023-02-01T22:54:55.514Z,17.83
2023-02-01T22:59:58.547Z,22.08
2023-02-01T23:05:01.512Z,25.02
2023-02-01T23:10:06.382Z,22.63
2023-02-01T23:15:09.978Z,28.40
2023-02-01T23:20:16.165Z,22.33
2023-02-01T23:25:19.593Z,24.90
2023-02-01T23:30:22.648Z,19.88
2023-02-01T23:35:25.921Z,27.90
2023-02-01T23:40:29.147Z,19.85
2023-02-01T23:45:32.212Z,24.95
2023-02-01T23:50:35.134Z,26.30
2023-02-01T23:55:38.141Z,18.20
